Time;durP1;ratioP1;P1;durP2;ratioP2;P2;SDS_P1;SDS_P2;PMS_P1;PMS_P2;Temp;Humidity;BMP_temperature;BMP_pressure;BME280_temperature;BME280_humidity;BME280_pressure;Samples;Min_cycle;Max_cycle;Signal;HPM_P1;HPM_P2
2023/06/13 00:01:30;;;;;;;11.07;7.00;;;22.30;61.40;;;;;;4957602;28;20020;-71
2023/06/13 00:03:56;;;;;;;9.52;6.72;;;22.30;61.50;;;;;;4957078;28;20033;-71
2023/06/13 00:06:22;;;;;;;9.85;7.03;;;22.20;61.50;;;;;;4956366;28;20062;-71
2023/06/13 00:08:48;;;;;;;13.43;7.13;;;22.20;61.80;;;;;;4955468;28;20467;-71
2023/06/13 00:11:14;;;;;;;9.32;6.88;;;22.10;61.70;;;;;;4956280;28;20029;-71
2023/06/13 00:13:40;;;;;;;11.55;6.80;;;22.10;62.00;;;;;;4956762;28;20035;-71
2023/06/13 00:16:06;;;;;;;11.20;6.97;;;22.10;62.10;;;;;;4956296;28;20070;-71
2023/06/13 00:18:32;;;;;;;11.07;6.80;;;22.00;62.10;;;;;;4951244;28;20040;-71
2023/06/13 00:20:58;;;;;;;13.77;6.72;;;22.00;62.40;;;;;;4955514;28;20031;-70
2023/06/13 00:23:26;;;;;;;10.90;6.65;;;21.90;62.50;;;;;;4955078;29;20020;-70
2023/06/13 00:25:52;;;;;;;11.02;6.97;;;21.80;62.40;;;;;;4956328;28;20389;-70
2023/06/13 00:28:18;;;;;;;10.48;6.25;;;21.80;62.40;;;;;;4946005;28;20027;-71
2023/06/13 00:30:45;;;;;;;9.93;6.55;;;21.70;62.30;;;;;;4955930;28;20093;-71
2023/06/13 00:33:17;;;;;;;10.35;6.20;;;21.70;62.50;;;;;;4955893;28;20023;-70
2023/06/13 00:35:44;;;;;;;9.93;6.50;;;21.60;62.60;;;;;;4955134;28;20035;-71
2023/06/13 00:38:10;;;;;;;8.55;6.63;;;21.60;62.40;;;;;;4948165;28;20052;-70
2023/06/13 00:40:36;;;;;;;9.75;6.45;;;21.60;62.40;;;;;;4956495;28;20545;-70
2023/06/13 00:43:02;;;;;;;13.73;6.80;;;21.50;63.10;;;;;;4956099;28;20011;-70
2023/06/13 00:45:28;;;;;;;10.20;6.68;;;21.50;62.60;;;;;;4955683;28;20046;-71
2023/06/13 00:47:58;;;;;;;10.43;6.05;;;21.40;63.30;;;;;;4948686;28;20054;-71
2023/06/13 00:50:26;;;;;;;9.35;6.40;;;21.40;62.20;;;;;;4942361;28;20074;-71
2023/06/13 00:52:55;;;;;;;9.25;6.47;;;21.40;62.10;;;;;;4954856;28;20042;-72
2023/06/13 00:55:23;;;;;;;9.75;6.32;;;21.30;62.30;;;;;;4952298;28;20510;-71
2023/06/13 00:57:53;;;;;;;12.50;6.20;;;21.30;62.30;;;;;;4954924;28;20067;-71
2023/06/13 01:00:20;;;;;;;9.77;5.97;;;21.30;62.30;;;;;;4939085;29;20052;-72
2023/06/13 01:02:45;;;;;;;7.85;5.55;;;21.20;62.30;;;;;;4955322;28;20379;-72
2023/06/13 01:05:11;;;;;;;7.80;5.43;;;21.20;62.30;;;;;;4954460;28;20075;-72
2023/06/13 01:07:39;;;;;;;8.25;5.70;;;21.20;62.50;;;;;;4955240;28;20572;-72
2023/06/13 01:10:09;;;;;;;7.43;5.50;;;21.10;63.30;;;;;;4953124;28;20027;-72
2023/06/13 01:12:45;;;;;;;12.10;5.32;;;21.10;62.30;;;;;;4955184;28;20039;-72
2023/06/13 01:15:16;;;;;;;7.75;5.80;;;21.10;62.50;;;;;;4949982;28;20023;-72
2023/06/13 01:17:57;;;;;;;8.35;5.55;;;21.00;62.50;;;;;;4952180;28;20467;-72
2023/06/13 01:20:27;;;;;;;8.30;5.47;;;21.00;62.70;;;;;;4943941;29;20106;-71
2023/06/13 01:23:15;;;;;;;8.95;5.75;;;20.90;63.60;;;;;;4954764;28;20027;-71
2023/06/13 01:26:02;;;;;;;13.15;6.20;;;20.90;63.10;;;;;;4954060;28;20038;-71
2023/06/13 01:28:32;;;;;;;13.20;6.05;;;20.90;63.20;;;;;;4953932;28;20031;-71
2023/06/13 01:31:01;;;;;;;10.70;6.13;;;20.80;63.50;;;;;;4954531;28;20020;-71
2023/06/13 01:33:27;;;;;;;9.45;6.10;;;20.80;63.50;;;;;;4953941;28;20038;-71
2023/06/13 01:35:53;;;;;;;8.18;5.95;;;20.80;63.90;;;;;;4954001;28;20031;-71
2023/06/13 01:38:19;;;;;;;9.98;5.88;;;20.80;63.80;;;;;;4948980;28;20042;-71
2023/06/13 01:40:47;;;;;;;9.02;6.45;;;20.70;64.60;;;;;;4948391;28;20465;-71
2023/06/13 01:43:12;;;;;;;11.75;6.30;;;20.70;63.90;;;;;;4951943;28;20095;-71
2023/06/13 01:45:39;;;;;;;8.80;6.03;;;20.70;64.90;;;;;;4943353;28;20441;-71
2023/06/13 01:48:10;;;;;;;10.00;6.20;;;20.60;64.30;;;;;;4950861;28;20031;-72
2023/06/13 01:50:54;;;;;;;9.52;6.13;;;20.60;64.50;;;;;;4954487;28;20086;-71
2023/06/13 01:53:25;;;;;;;12.68;6.13;;;20.50;64.60;;;;;;4953605;28;20038;-71
2023/06/13 01:56:00;;;;;;;8.00;6.15;;;20.50;64.80;;;;;;4946436;28;20031;-71
2023/06/13 01:58:40;;;;;;;12.55;6.10;;;20.40;65.60;;;;;;4939784;29;20060;-71
2023/06/13 02:01:07;;;;;;;9.30;6.15;;;20.40;65.20;;;;;;4949909;29;20070;-71
2023/06/13 02:03:33;;;;;;;13.07;6.68;;;20.30;65.40;;;;;;4954083;28;20073;-71
2023/06/13 02:06:00;;;;;;;10.68;5.95;;;20.30;65.50;;;;;;4948926;28;20062;-70
2023/06/13 02:08:26;;;;;;;10.15;6.18;;;20.30;65.40;;;;;;4954042;28;20027;-71
2023/06/13 02:10:53;;;;;;;8.15;5.97;;;20.30;65.50;;;;;;4953062;28;20031;-71
2023/06/13 02:13:18;;;;;;;12.55;6.13;;;20.20;65.50;;;;;;4952405;28;20027;-71
2023/06/13 02:15:45;;;;;;;7.50;5.78;;;20.20;65.60;;;;;;4953488;28;20031;-70
2023/06/13 02:18:11;;;;;;;10.40;6.93;;;20.20;66.00;;;;;;4953385;28;20041;-71
2023/06/13 02:20:36;;;;;;;12.93;6.43;;;20.10;66.10;;;;;;4953656;28;20019;-71
2023/06/13 02:23:02;;;;;;;10.27;6.47;;;20.10;66.20;;;;;;4953904;28;20082;-71
2023/06/13 02:25:28;;;;;;;10.98;6.93;;;20.00;66.10;;;;;;4953593;28;20046;-71
2023/06/13 02:27:54;;;;;;;12.55;6.30;;;20.00;66.40;;;;;;4953026;28;20027;-71
2023/06/13 02:30:20;;;;;;;11.18;6.72;;;20.00;66.70;;;;;;4939616;28;20083;-71
2023/06/13 02:32:46;;;;;;;9.93;6.25;;;19.90;66.80;;;;;;4953841;29;20086;-70
2023/06/13 02:35:13;;;;;;;10.80;6.63;;;19.90;66.80;;;;;;4954063;28;20020;-70
2023/06/13 02:37:38;;;;;;;10.48;6.88;;;19.90;67.00;;;;;;4953529;28;20023;-71
2023/06/13 02:40:05;;;;;;;10.15;7.05;;;19.80;66.90;;;;;;4953547;28;20578;-71
2023/06/13 02:42:31;;;;;;;11.68;7.63;;;19.80;67.00;;;;;;4953931;28;20510;-70
2023/06/13 02:44:57;;;;;;;11.20;7.15;;;19.70;67.10;;;;;;4953394;28;20027;-71
2023/06/13 02:47:23;;;;;;;11.90;6.93;;;19.70;67.30;;;;;;4953338;28;20140;-70
2023/06/13 02:49:49;;;;;;;9.00;6.70;;;19.70;67.60;;;;;;4952055;28;20390;-71
2023/06/13 02:52:15;;;;;;;13.32;6.72;;;19.60;67.60;;;;;;4954408;28;20015;-71
2023/06/13 02:54:40;;;;;;;11.20;6.75;;;19.60;67.50;;;;;;4954000;28;20035;-70
2023/06/13 02:57:07;;;;;;;8.80;6.72;;;19.60;67.70;;;;;;4952297;28;20023;-70
2023/06/13 02:59:33;;;;;;;8.50;6.68;;;19.50;67.60;;;;;;4954274;28;20051;-71
2023/06/13 03:01:59;;;;;;;10.52;6.70;;;19.50;67.90;;;;;;4947548;28;20400;-71
2023/06/13 03:04:28;;;;;;;11.43;6.82;;;19.40;68.00;;;;;;4956644;29;20024;-71
2023/06/13 03:06:54;;;;;;;10.82;6.65;;;19.40;68.10;;;;;;4957946;28;20054;-71
2023/06/13 03:09:20;;;;;;;7.90;6.28;;;19.40;68.20;;;;;;4957102;28;20015;-70
2023/06/13 03:11:45;;;;;;;11.13;6.55;;;19.30;68.30;;;;;;4957645;28;20471;-71
2023/06/13 03:14:12;;;;;;;7.80;6.50;;;19.30;68.30;;;;;;4952955;28;20019;-71
2023/06/13 03:16:38;;;;;;;11.10;6.47;;;19.30;68.50;;;;;;4957330;29;20029;-70
2023/06/13 03:19:03;;;;;;;9.55;6.65;;;19.20;69.30;;;;;;4955470;28;20366;-70
2023/06/13 03:21:30;;;;;;;12.60;6.72;;;19.20;68.60;;;;;;4950985;28;20020;-71
2023/06/13 03:23:55;;;;;;;8.48;6.20;;;19.20;68.70;;;;;;4951101;29;20019;-71
2023/06/13 03:26:22;;;;;;;13.63;7.25;;;19.10;68.70;;;;;;4956874;28;20063;-71
2023/06/13 03:28:48;;;;;;;10.02;6.82;;;19.10;68.80;;;;;;4953719;28;20027;-71
2023/06/13 03:31:14;;;;;;;10.85;6.25;;;19.10;69.10;;;;;;4956975;28;20019;-71
2023/06/13 03:33:40;;;;;;;9.95;6.30;;;19.10;69.20;;;;;;4957141;28;20107;-71
2023/06/13 03:36:06;;;;;;;15.02;6.97;;;19.00;69.20;;;;;;4956297;28;20069;-72
2023/06/13 03:38:32;;;;;;;12.98;7.00;;;19.00;69.30;;;;;;4957011;28;20466;-70
2023/06/13 03:40:59;;;;;;;14.40;6.85;;;19.00;69.60;;;;;;5207387;23;20102;-71
2023/06/13 03:43:26;;;;;;;14.95;6.82;;;18.90;69.50;;;;;;4951675;29;20036;-71
2023/06/13 03:45:52;;;;;;;12.73;6.55;;;18.90;69.50;;;;;;4946509;29;20063;-71
2023/06/13 03:48:18;;;;;;;10.65;6.63;;;18.90;69.60;;;;;;4964965;28;20438;-71
2023/06/13 03:50:43;;;;;;;9.75;6.50;;;18.90;69.70;;;;;;4945710;28;20051;-71
2023/06/13 03:53:09;;;;;;;8.23;6.07;;;18.80;69.70;;;;;;4955270;29;20022;-71
2023/06/13 03:55:36;;;;;;;13.23;7.05;;;18.80;70.00;;;;;;4955780;28;20051;-71
2023/06/13 03:58:02;;;;;;;11.27;6.85;;;18.80;70.00;;;;;;4954568;29;20091;-71
2023/06/13 04:00:29;;;;;;;9.77;6.80;;;18.80;70.20;;;;;;4955322;28;20107;-71
2023/06/13 04:02:55;;;;;;;10.32;7.05;;;18.80;70.20;;;;;;4950498;28;20364;-71
2023/06/13 04:05:21;;;;;;;12.82;6.38;;;18.80;70.30;;;;;;4946299;28;20035;-71
2023/06/13 04:07:47;;;;;;;10.27;6.63;;;18.80;70.30;;;;;;4945865;28;20020;-71
2023/06/13 04:10:12;;;;;;;11.02;6.43;;;18.70;70.40;;;;;;4947537;28;20030;-71
2023/06/13 04:12:38;;;;;;;13.75;6.97;;;18.80;70.60;;;;;;4943510;28;20019;-71
2023/06/13 04:15:05;;;;;;;11.15;6.75;;;18.70;70.70;;;;;;4943802;29;20028;-71
2023/06/13 04:17:32;;;;;;;11.75;6.82;;;18.70;70.90;;;;;;4953209;28;20019;-71
2023/06/13 04:19:57;;;;;;;9.70;6.57;;;18.70;71.10;;;;;;4950575;28;20390;-71
2023/06/13 04:22:23;;;;;;;10.50;6.65;;;18.70;71.00;;;;;;4950951;28;20017;-71
2023/06/13 04:24:50;;;;;;;9.82;6.90;;;18.70;71.10;;;;;;4950037;28;20474;-77
2023/06/13 04:27:19;;;;;;;9.73;6.80;;;18.70;71.00;;;;;;4947636;28;20022;-75
2023/06/13 04:29:48;;;;;;;11.18;6.72;;;18.70;71.10;;;;;;4945799;29;20118;-76
2023/06/13 04:32:17;;;;;;;10.30;7.15;;;18.70;71.00;;;;;;4949812;28;20453;-75
2023/06/13 04:34:52;;;;;;;13.23;6.82;;;18.70;71.20;;;;;;4941957;28;20379;-76
2023/06/13 04:37:25;;;;;;;9.40;6.75;;;18.70;71.20;;;;;;4937079;29;20038;-76
2023/06/13 04:39:52;;;;;;;11.40;6.70;;;18.60;71.10;;;;;;4934367;29;20023;-75
2023/06/13 04:42:27;;;;;;;11.88;6.63;;;18.70;71.10;;;;;;4948654;29;20051;-76
2023/06/13 04:44:53;;;;;;;9.32;6.78;;;18.70;71.10;;;;;;4940599;28;20379;-75
2023/06/13 04:47:20;;;;;;;10.73;6.97;;;18.70;70.90;;;;;;4939961;29;20154;-76
2023/06/13 04:49:46;;;;;;;11.32;6.40;;;18.70;70.90;;;;;;4935857;28;20047;-75
2023/06/13 04:52:15;;;;;;;14.25;6.43;;;18.70;70.70;;;;;;4940673;29;20031;-75
2023/06/13 04:54:41;;;;;;;12.25;6.78;;;18.80;70.60;;;;;;4946884;28;20075;-76
2023/06/13 04:57:07;;;;;;;12.60;7.00;;;18.80;70.70;;;;;;4944654;28;20453;-76
2023/06/13 04:59:32;;;;;;;12.15;6.60;;;18.80;70.50;;;;;;4944761;28;20031;-75
2023/06/13 05:01:58;;;;;;;12.35;7.07;;;18.90;70.60;;;;;;4937921;28;20030;-75
2023/06/13 05:04:23;;;;;;;13.25;6.53;;;18.90;70.70;;;;;;4944483;29;20401;-75
2023/06/13 05:06:49;;;;;;;13.90;7.07;;;18.90;70.80;;;;;;4941633;28;20459;-75
2023/06/13 05:09:16;;;;;;;12.45;6.80;;;18.90;70.70;;;;;;4951630;28;20046;-76
2023/06/13 05:11:42;;;;;;;12.85;6.85;;;18.90;70.70;;;;;;4946001;29;20015;-75
2023/06/13 05:14:08;;;;;;;12.40;7.20;;;18.90;70.70;;;;;;4948798;28;20034;-78
2023/06/13 05:16:34;;;;;;;14.93;6.93;;;18.90;70.90;;;;;;4941439;28;20031;-75
2023/06/13 05:19:00;;;;;;;13.38;7.30;;;18.90;71.70;;;;;;4942923;28;20044;-75
2023/06/13 05:21:30;;;;;;;10.63;6.60;;;19.00;71.00;;;;;;4944348;28;20031;-75
2023/06/13 05:23:57;;;;;;;15.05;6.90;;;19.00;70.90;;;;;;4939807;29;20024;-75
2023/06/13 05:26:22;;;;;;;11.30;6.68;;;19.00;70.90;;;;;;4944300;28;20035;-76
2023/06/13 05:28:48;;;;;;;10.02;6.55;;;19.10;71.00;;;;;;4943995;28;20067;-76
2023/06/13 05:31:14;;;;;;;10.77;6.63;;;19.10;71.10;;;;;;4935989;28;20106;-75
2023/06/13 05:33:40;;;;;;;11.85;7.20;;;19.10;71.10;;;;;;4943635;28;20032;-75
2023/06/13 05:36:05;;;;;;;12.95;7.18;;;19.10;70.80;;;;;;4947214;28;20028;-75
2023/06/13 05:38:32;;;;;;;10.88;7.63;;;19.20;70.80;;;;;;4948239;29;20035;-75
2023/06/13 05:40:57;;;;;;;11.93;7.05;;;19.20;70.60;;;;;;4952070;28;20035;-75
2023/06/13 05:43:23;;;;;;;11.80;6.90;;;19.30;70.60;;;;;;4942562;28;20034;-75
2023/06/13 05:45:49;;;;;;;10.80;7.10;;;19.30;70.40;;;;;;4949297;28;20470;-75
2023/06/13 05:48:14;;;;;;;12.43;7.03;;;19.30;70.20;;;;;;4949205;28;20687;-75
2023/06/13 05:50:40;;;;;;;14.43;7.40;;;19.40;70.20;;;;;;4945181;29;20027;-75
2023/06/13 05:53:06;;;;;;;12.55;6.78;;;19.40;70.20;;;;;;4948521;28;20027;-75
2023/06/13 05:55:31;;;;;;;12.25;6.93;;;19.40;70.10;;;;;;4943073;29;20038;-75
2023/06/13 05:57:57;;;;;;;11.38;7.10;;;19.50;70.10;;;;;;4948847;28;20031;-75
2023/06/13 06:00:23;;;;;;;8.98;7.10;;;19.50;70.10;;;;;;4952351;28;20505;-75
2023/06/13 06:02:48;;;;;;;13.25;7.25;;;19.60;69.90;;;;;;4951222;28;20023;-75
2023/06/13 06:05:14;;;;;;;10.20;7.15;;;19.60;69.70;;;;;;4951475;28;20086;-75
2023/06/13 06:07:44;;;;;;;12.07;7.32;;;19.70;69.70;;;;;;4944806;28;20039;-75
2023/06/13 06:10:11;;;;;;;9.40;7.05;;;19.80;69.70;;;;;;4944987;29;20034;-75
2023/06/13 06:12:36;;;;;;;14.63;7.50;;;19.80;69.60;;;;;;4951816;28;20323;-75
2023/06/13 06:15:03;;;;;;;11.32;7.18;;;19.90;69.40;;;;;;4951757;28;20027;-75
2023/06/13 06:17:28;;;;;;;14.10;7.68;;;19.90;69.20;;;;;;4949881;28;20028;-75
2023/06/13 06:19:54;;;;;;;16.73;7.18;;;20.00;69.10;;;;;;4951951;28;20038;-76
2023/06/13 06:22:20;;;;;;;13.35;7.07;;;20.10;69.10;;;;;;4950316;28;20057;-75
2023/06/13 06:24:45;;;;;;;9.80;7.18;;;20.20;68.80;;;;;;4950721;28;20038;-74
2023/06/13 06:27:12;;;;;;;15.02;7.25;;;20.30;68.60;;;;;;4947782;29;20508;-75
2023/06/13 06:29:44;;;;;;;9.73;6.75;;;20.40;69.10;;;;;;4945183;29;20697;-75
2023/06/13 06:32:10;;;;;;;13.00;7.03;;;20.50;68.10;;;;;;4939177;29;20550;-73
2023/06/13 06:34:36;;;;;;;11.27;6.80;;;20.60;68.10;;;;;;4951031;28;20023;-75
2023/06/13 06:37:03;;;;;;;11.52;7.20;;;20.70;67.80;;;;;;4954752;29;20027;-75
2023/06/13 06:39:29;;;;;;;11.38;6.38;;;20.80;67.40;;;;;;4955941;29;20038;-76
2023/06/13 06:41:55;;;;;;;14.15;7.18;;;21.00;68.10;;;;;;4953871;28;20043;-75
2023/06/13 06:44:21;;;;;;;14.93;7.00;;;21.10;67.00;;;;;;4952960;29;20027;-75
2023/06/13 06:46:46;;;;;;;13.35;6.68;;;21.20;66.30;;;;;;4943853;28;20482;-74
2023/06/13 06:49:12;;;;;;;11.15;7.03;;;21.40;66.20;;;;;;4940132;29;20614;-75
2023/06/13 06:51:37;;;;;;;12.13;6.88;;;21.50;66.00;;;;;;4946379;28;20049;-75
2023/06/13 06:54:03;;;;;;;13.00;6.95;;;21.60;65.50;;;;;;4936858;29;20034;-75
2023/06/13 06:56:29;;;;;;;11.32;6.43;;;21.80;65.40;;;;;;4953163;29;20138;-75
2023/06/13 06:58:54;;;;;;;11.55;6.68;;;21.90;65.00;;;;;;4952347;28;20061;-75
2023/06/13 07:01:20;;;;;;;12.40;6.00;;;22.10;64.20;;;;;;4952319;28;20054;-75
2023/06/13 07:03:46;;;;;;;19.70;6.47;;;22.30;63.40;;;;;;4950278;28;20027;-75
2023/06/13 07:06:11;;;;;;;13.98;6.35;;;22.40;62.60;;;;;;4953014;29;20414;-74
2023/06/13 07:08:37;;;;;;;11.25;6.38;;;22.60;62.20;;;;;;4949582;28;20525;-73
2023/06/13 07:11:03;;;;;;;13.75;6.50;;;22.70;61.60;;;;;;4952385;28;20110;-73
2023/06/13 07:13:28;;;;;;;9.68;6.50;;;22.90;60.70;;;;;;4953778;28;20106;-73
2023/06/13 07:15:55;;;;;;;11.95;6.15;;;23.10;60.00;;;;;;4950499;29;20560;-73
2023/06/13 07:18:20;;;;;;;11.88;5.90;;;23.20;59.60;;;;;;4951850;29;20024;-74
2023/06/13 07:20:46;;;;;;;10.88;5.97;;;23.30;59.30;;;;;;4949194;28;20019;-73
2023/06/13 07:23:12;;;;;;;12.48;6.30;;;23.50;58.60;;;;;;4946502;29;20034;-73
2023/06/13 07:25:40;;;;;;;8.65;5.57;;;23.60;58.20;;;;;;4951651;28;20032;-73
2023/06/13 07:28:07;;;;;;;10.68;5.80;;;23.80;57.70;;;;;;4944464;29;20529;-76
2023/06/13 07:30:32;;;;;;;10.23;5.95;;;24.00;57.50;;;;;;4946847;28;20035;-76
2023/06/13 07:32:58;;;;;;;11.55;5.63;;;24.10;57.10;;;;;;4948344;29;20027;-76
2023/06/13 07:35:24;;;;;;;12.25;6.57;;;24.30;56.70;;;;;;4952778;28;20497;-75
2023/06/13 07:37:50;;;;;;;9.90;5.40;;;24.50;56.30;;;;;;4939790;29;20038;-76
2023/06/13 07:40:16;;;;;;;8.93;5.50;;;24.70;55.90;;;;;;4939883;29;20028;-76
2023/06/13 07:42:42;;;;;;;12.82;5.90;;;24.80;55.50;;;;;;4944059;29;20043;-76
2023/06/13 07:45:08;;;;;;;12.02;5.28;;;25.00;55.10;;;;;;4948152;29;20020;-75
2023/06/13 07:47:35;;;;;;;8.68;5.38;;;25.20;54.80;;;;;;4948153;28;20028;-75
2023/06/13 07:50:01;;;;;;;7.38;4.97;;;25.30;54.20;;;;;;4955166;28;20047;-76
2023/06/13 07:52:26;;;;;;;7.72;5.22;;;25.40;53.60;;;;;;4952470;29;20070;-77
2023/06/13 07:54:52;;;;;;;12.20;5.50;;;25.50;53.10;;;;;;4950306;28;20027;-77
2023/06/13 07:57:18;;;;;;;10.35;5.63;;;25.60;52.40;;;;;;4955257;28;20055;-76
2023/06/13 07:59:44;;;;;;;9.38;5.20;;;25.80;52.30;;;;;;4946293;29;20027;-76
2023/06/13 08:02:10;;;;;;;7.53;4.95;;;25.90;52.10;;;;;;4951612;28;20028;-77
2023/06/13 08:04:36;;;;;;;6.55;5.18;;;26.10;51.80;;;;;;4938315;29;20533;-76
2023/06/13 08:07:01;;;;;;;10.63;5.47;;;26.20;51.20;;;;;;4937757;29;20032;-77
2023/06/13 08:09:27;;;;;;;7.88;5.13;;;26.30;51.00;;;;;;4955730;28;20043;-77
2023/06/13 08:11:53;;;;;;;6.68;5.28;;;26.40;50.70;;;;;;4956349;28;20390;-76
2023/06/13 08:14:19;;;;;;;9.45;5.20;;;26.50;50.20;;;;;;4955781;28;20501;-76
2023/06/13 08:16:45;;;;;;;7.18;5.18;;;26.60;50.00;;;;;;4953423;28;20035;-76
2023/06/13 08:19:11;;;;;;;10.43;4.68;;;26.60;49.80;;;;;;4950917;28;20038;-75
2023/06/13 08:21:36;;;;;;;9.68;5.60;;;26.70;49.20;;;;;;4952859;29;20398;-76
2023/06/13 08:24:02;;;;;;;9.23;5.28;;;26.80;49.80;;;;;;4951958;29;20157;-75
2023/06/13 08:26:32;;;;;;;10.45;5.63;;;27.00;49.00;;;;;;4945352;29;20039;-75
2023/06/13 08:29:01;;;;;;;7.32;5.38;;;27.00;48.20;;;;;;4946474;28;20039;-75
2023/06/13 08:31:27;;;;;;;9.27;5.53;;;27.10;47.90;;;;;;4948701;28;20391;-75
2023/06/13 08:33:55;;;;;;;11.25;5.05;;;27.20;47.50;;;;;;4950569;28;20115;-72
2023/06/13 08:36:21;;;;;;;8.98;5.88;;;27.30;47.30;;;;;;4943396;29;20090;-73
2023/06/13 08:38:47;;;;;;;9.40;5.38;;;27.40;47.20;;;;;;4939629;28;20019;-73
2023/06/13 08:41:15;;;;;;;11.93;5.50;;;27.50;47.10;;;;;;4949140;28;20054;-74
2023/06/13 08:43:42;;;;;;;12.63;6.35;;;27.70;47.20;;;;;;4934835;28;20024;-74
2023/06/13 08:46:07;;;;;;;11.02;5.45;;;27.80;46.40;;;;;;4943525;29;20040;-74
2023/06/13 08:48:33;;;;;;;11.95;6.03;;;27.90;46.00;;;;;;4945818;28;20038;-74
2023/06/13 08:51:00;;;;;;;13.07;5.80;;;27.90;46.30;;;;;;4952082;28;20027;-74
2023/06/13 08:53:29;;;;;;;11.25;5.90;;;28.00;45.40;;;;;;4948533;28;20038;-74
2023/06/13 08:55:55;;;;;;;17.05;5.60;;;28.00;45.40;;;;;;4951717;28;20054;-74
2023/06/13 08:58:24;;;;;;;8.10;5.80;;;28.00;45.00;;;;;;4951202;28;20023;-75
2023/06/13 09:00:50;;;;;;;7.90;6.00;;;28.00;44.90;;;;;;4951907;28;20030;-74
2023/06/13 09:03:17;;;;;;;8.90;5.70;;;28.00;45.30;;;;;;4942348;28;20023;-74
2023/06/13 09:05:42;;;;;;;10.15;5.75;;;28.10;44.80;;;;;;4949257;29;20062;-74
2023/06/13 09:08:09;;;;;;;11.32;6.20;;;28.20;45.50;;;;;;4944662;29;20055;-74
2023/06/13 09:10:36;;;;;;;14.45;6.18;;;28.30;44.60;;;;;;4950192;29;20023;-74
2023/06/13 09:13:03;;;;;;;12.48;5.85;;;28.20;43.60;;;;;;4939256;28;20119;-74
2023/06/13 09:15:30;;;;;;;11.15;5.55;;;28.20;43.00;;;;;;4952508;28;20481;-74
2023/06/13 09:17:56;;;;;;;11.07;5.60;;;28.30;43.90;;;;;;4946775;28;20075;-74
2023/06/13 09:20:22;;;;;;;10.75;5.68;;;28.30;43.20;;;;;;4948379;28;20026;-74
2023/06/13 09:22:49;;;;;;;8.73;5.80;;;28.40;42.40;;;;;;4947853;28;20027;-74
2023/06/13 09:25:18;;;;;;;14.35;5.90;;;28.50;42.00;;;;;;4938933;29;20053;-74
2023/06/13 09:27:43;;;;;;;9.77;6.35;;;28.60;41.80;;;;;;4944830;28;20032;-74
2023/06/13 09:30:09;;;;;;;14.27;6.30;;;28.60;41.70;;;;;;4947243;28;20489;-75
2023/06/13 09:32:36;;;;;;;13.05;5.75;;;28.70;42.20;;;;;;4951765;28;20473;-74
2023/06/13 09:35:05;;;;;;;11.18;5.70;;;28.80;42.00;;;;;;4948140;28;20102;-74
2023/06/13 09:37:32;;;;;;;8.55;5.53;;;28.80;42.10;;;;;;4941152;29;20062;-74
2023/06/13 09:40:05;;;;;;;11.40;5.63;;;28.90;41.60;;;;;;4942325;28;20024;-74
2023/06/13 09:42:32;;;;;;;10.27;5.63;;;29.00;41.40;;;;;;4946949;28;20382;-74
2023/06/13 09:44:57;;;;;;;10.30;5.68;;;29.00;40.90;;;;;;4946764;29;20122;-74
2023/06/13 09:47:25;;;;;;;12.48;5.43;;;29.00;40.60;;;;;;4951903;28;20126;-74
2023/06/13 09:50:00;;;;;;;10.48;5.60;;;29.00;40.00;;;;;;4939911;28;20407;-74
2023/06/13 09:52:27;;;;;;;7.47;5.10;;;29.00;39.30;;;;;;4941112;29;20055;-74
2023/06/13 09:54:53;;;;;;;12.98;5.78;;;29.00;39.70;;;;;;4941831;28;20036;-74
2023/06/13 09:57:20;;;;;;;10.60;5.55;;;28.90;39.40;;;;;;4947484;29;20364;-75
2023/06/13 09:59:47;;;;;;;10.38;5.50;;;29.00;39.60;;;;;;4951476;29;20020;-75
2023/06/13 10:02:15;;;;;;;10.30;5.82;;;29.00;39.90;;;;;;4948868;28;20028;-75
2023/06/13 10:04:41;;;;;;;11.75;5.82;;;29.10;40.20;;;;;;4951947;28;20031;-75
2023/06/13 10:07:06;;;;;;;11.20;5.93;;;29.20;39.90;;;;;;4944026;28;20105;-75
2023/06/13 10:09:32;;;;;;;13.98;5.63;;;29.20;39.90;;;;;;4950818;28;20047;-75
2023/06/13 10:11:59;;;;;;;9.43;5.32;;;29.40;40.80;;;;;;4955299;28;20023;-75
2023/06/13 10:14:27;;;;;;;12.65;6.00;;;29.50;40.30;;;;;;4953540;28;20019;-75
2023/06/13 10:17:01;;;;;;;8.60;5.15;;;29.70;40.90;;;;;;4953796;28;20050;-75
2023/06/13 10:19:28;;;;;;;9.43;5.32;;;29.80;39.80;;;;;;4951300;28;20023;-75
2023/06/13 10:21:55;;;;;;;11.93;5.57;;;30.00;40.00;;;;;;4954012;28;20449;-74
2023/06/13 10:24:22;;;;;;;12.10;6.20;;;30.10;39.10;;;;;;4950860;28;20019;-74
2023/06/13 10:26:54;;;;;;;9.30;5.45;;;30.00;38.50;;;;;;4949594;28;20027;-74
2023/06/13 10:29:53;;;;;;;11.77;5.40;;;30.00;38.30;;;;;;4948904;28;20023;-74
2023/06/13 10:32:59;;;;;;;8.60;5.53;;;30.00;38.10;;;;;;4948471;28;20042;-75
2023/06/13 10:35:54;;;;;;;11.73;5.95;;;30.00;37.80;;;;;;4943645;28;20085;-75
2023/06/13 10:38:59;;;;;;;12.98;5.28;;;29.90;37.80;;;;;;4938300;29;20070;-75
2023/06/13 10:42:01;;;;;;;12.67;5.60;;;30.00;38.30;;;;;;4945680;28;20043;-75
2023/06/13 10:45:05;;;;;;;12.18;5.25;;;30.10;37.90;;;;;;4945780;29;20274;-73
2023/06/13 10:47:31;;;;;;;9.90;5.40;;;30.20;37.80;;;;;;4945864;29;20043;-74
2023/06/13 10:49:57;;;;;;;7.57;5.20;;;30.20;37.90;;;;;;4947438;29;20037;-74
2023/06/13 10:52:23;;;;;;;9.35;5.88;;;30.30;37.60;;;;;;4953153;28;20033;-73
2023/06/13 10:54:54;;;;;;;15.60;5.70;;;30.20;37.50;;;;;;4946233;28;20115;-73
2023/06/13 10:57:20;;;;;;;13.40;5.65;;;30.30;37.70;;;;;;4950199;28;20023;-73
2023/06/13 10:59:49;;;;;;;8.65;5.60;;;30.30;37.50;;;;;;4941252;29;20427;-76
2023/06/13 11:02:19;;;;;;;9.93;5.28;;;30.30;37.50;;;;;;4953268;29;20029;-76
2023/06/13 11:04:49;;;;;;;10.13;5.55;;;30.40;37.60;;;;;;4952799;28;20038;-76
2023/06/13 11:07:26;;;;;;;11.55;5.80;;;30.50;37.30;;;;;;4951979;28;20462;-76
2023/06/13 11:10:15;;;;;;;10.43;5.72;;;30.60;37.00;;;;;;4950305;28;20493;-76
2023/06/13 11:12:42;;;;;;;9.35;5.53;;;30.60;36.40;;;;;;4952444;29;20024;-76
2023/06/13 11:15:28;;;;;;;9.27;5.20;;;30.60;37.50;;;;;;4952657;28;20533;-76
2023/06/13 11:18:09;;;;;;;8.77;5.85;;;30.60;37.00;;;;;;4948834;28;20414;-76
2023/06/13 11:20:47;;;;;;;11.25;5.72;;;30.70;37.10;;;;;;4954709;28;20071;-76
2023/06/13 11:23:37;;;;;;;9.85;5.30;;;30.80;37.00;;;;;;4949879;28;20019;-76
2023/06/13 11:26:03;;;;;;;7.78;5.40;;;30.80;36.80;;;;;;4954181;28;20109;-77
2023/06/13 11:28:33;;;;;;;7.20;5.50;;;30.90;37.30;;;;;;4954385;28;20433;-77
2023/06/13 11:31:05;;;;;;;8.75;5.47;;;31.00;36.70;;;;;;4948903;28;20051;-77
2023/06/13 11:33:36;;;;;;;7.00;5.75;;;31.00;36.30;;;;;;4955837;29;20058;-79
2023/06/13 11:36:03;;;;;;;12.30;5.80;;;31.10;36.30;;;;;;4962575;28;20023;-80
2023/06/13 11:38:38;;;;;;;9.27;5.50;;;31.20;36.30;;;;;;4960720;28;20043;-79
2023/06/13 11:41:03;;;;;;;10.93;5.60;;;31.20;36.20;;;;;;4954883;28;20075;-80
2023/06/13 11:43:29;;;;;;;9.50;5.28;;;31.30;35.90;;;;;;4948789;28;20051;-80
2023/06/13 11:46:02;;;;;;;10.70;5.30;;;31.40;36.30;;;;;;4962331;28;20042;-81
2023/06/13 11:48:27;;;;;;;10.63;5.50;;;31.40;36.40;;;;;;4957055;29;20191;-80
2023/06/13 11:51:06;;;;;;;8.02;5.47;;;31.40;36.30;;;;;;4953878;28;20107;-73
2023/06/13 11:53:32;;;;;;;8.65;5.32;;;31.50;36.40;;;;;;4951716;28;20437;-73
2023/06/13 11:56:05;;;;;;;9.00;5.82;;;31.50;36.20;;;;;;4951585;28;20031;-73
2023/06/13 11:58:31;;;;;;;10.98;5.00;;;31.50;36.00;;;;;;4947729;28;20107;-73
2023/06/13 12:00:57;;;;;;;8.82;5.45;;;31.60;36.00;;;;;;4948135;29;20546;-73
2023/06/13 12:03:26;;;;;;;9.00;5.45;;;31.50;35.80;;;;;;4943855;29;20098;-73
2023/06/13 12:05:53;;;;;;;9.93;5.45;;;31.50;35.80;;;;;;4954024;29;20030;-73
2023/06/13 12:08:19;;;;;;;8.00;5.25;;;31.50;35.50;;;;;;4955349;28;20020;-73
2023/06/13 12:10:48;;;;;;;9.70;5.20;;;31.60;35.40;;;;;;4953855;28;20023;-73
2023/06/13 12:13:17;;;;;;;7.90;5.40;;;31.70;35.70;;;;;;4954290;29;20023;-73
2023/06/13 12:15:43;;;;;;;11.80;5.50;;;31.80;35.70;;;;;;4944857;28;20435;-73
2023/06/13 12:18:09;;;;;;;10.48;5.47;;;31.80;35.70;;;;;;4945833;29;20027;-73
2023/06/13 12:20:51;;;;;;;8.82;5.47;;;31.80;36.00;;;;;;4945988;28;20082;-73
2023/06/13 12:23:17;;;;;;;8.38;5.45;;;31.80;36.00;;;;;;4952909;29;20038;-73
2023/06/13 12:25:45;;;;;;;9.27;5.07;;;31.80;35.70;;;;;;4954723;28;20516;-73
2023/06/13 12:28:15;;;;;;;6.07;5.25;;;31.80;35.90;;;;;;4953838;28;20015;-73
2023/06/13 12:30:42;;;;;;;7.90;4.97;;;31.90;35.50;;;;;;4953213;28;20031;-73
2023/06/13 12:33:14;;;;;;;6.30;4.80;;;32.00;35.10;;;;;;4946190;28;20024;-73
2023/06/13 12:35:57;;;;;;;7.38;5.45;;;32.00;34.90;;;;;;4954629;28;20482;-73
2023/06/13 12:38:28;;;;;;;7.60;5.18;;;32.10;35.40;;;;;;4954504;28;20517;-73
2023/06/13 12:40:54;;;;;;;10.88;5.63;;;32.10;35.20;;;;;;4954262;28;20042;-73
2023/06/13 12:43:27;;;;;;;11.27;5.35;;;32.10;35.60;;;;;;4954269;28;20363;-73
2023/06/13 12:45:56;;;;;;;10.63;5.68;;;32.20;35.50;;;;;;4947944;29;20038;-73